createdAt,value
2019-05-10T00:01:32.420Z,9.50
2019-05-10T00:03:52.370Z,9.20
2019-05-10T00:06:12.250Z,9.30
2019-05-10T00:08:32.207Z,9.30
2019-05-10T00:10:33.553Z,9.30
2019-05-10T00:12:43.562Z,9.20
2019-05-10T00:14:50.164Z,9.20
2019-05-10T00:16:54.474Z,9.10
2019-05-10T00:18:56.145Z,9.20
2019-05-10T00:20:57.804Z,9.20
2019-05-10T00:22:59.478Z,9.20
2019-05-10T00:25:04.487Z,9.20
2019-05-10T00:27:05.065Z,9.20
2019-05-10T00:29:06.729Z,9.20
2019-05-10T00:31:08.400Z,9.20
2019-05-10T00:33:10.072Z,9.20
2019-05-10T00:35:11.766Z,9.20
2019-05-10T00:37:13.467Z,9.30
2019-05-10T00:39:15.189Z,9.30
2019-05-10T00:41:16.876Z,9.30
2019-05-10T00:43:18.818Z,9.40
2019-05-10T00:45:20.495Z,9.40
2019-05-10T00:47:22.160Z,9.50
2019-05-10T00:49:24.127Z,9.50
2019-05-10T00:51:26.137Z,9.60
2019-05-10T00:53:28.096Z,9.70
2019-05-10T00:55:29.773Z,9.70
2019-05-10T00:57:31.426Z,9.80
2019-05-10T00:59:33.085Z,9.80
2019-05-10T01:01:35.118Z,9.80
2019-05-10T01:03:36.787Z,9.80
2019-05-10T01:05:38.464Z,9.80
2019-05-10T01:07:40.134Z,9.80
2019-05-10T01:09:41.797Z,9.90
2019-05-10T01:11:43.477Z,9.90
2019-05-10T01:13:45.124Z,9.90
2019-05-10T01:15:47.033Z,10.00
2019-05-10T01:17:48.961Z,10.00
2019-05-10T01:19:50.616Z,10.10
2019-05-10T01:21:52.298Z,10.10
2019-05-10T01:23:53.956Z,10.20
2019-05-10T01:25:55.634Z,10.20
2019-05-10T01:27:57.297Z,10.20
2019-05-10T01:29:58.966Z,10.30
2019-05-10T01:32:00.941Z,10.30
2019-05-10T01:34:02.600Z,10.30
2019-05-10T01:36:04.382Z,10.40
2019-05-10T01:38:06.386Z,10.40
2019-05-10T01:40:08.058Z,10.40
2019-05-10T01:42:09.758Z,10.50
2019-05-10T01:44:11.421Z,10.50
2019-05-10T01:46:13.101Z,10.50
2019-05-10T01:48:15.001Z,10.50
2019-05-10T01:50:16.673Z,10.60
2019-05-10T01:52:18.641Z,10.60
2019-05-10T01:54:20.332Z,10.60
2019-05-10T01:56:22.249Z,10.60
2019-05-10T01:58:23.925Z,10.70
2019-05-10T02:00:25.585Z,10.70
2019-05-10T02:02:27.262Z,10.70
2019-05-10T02:04:28.939Z,10.70
2019-05-10T02:06:30.602Z,10.70
2019-05-10T02:08:32.601Z,10.70
2019-05-10T02:10:34.261Z,10.80
2019-05-10T02:12:35.937Z,10.80
2019-05-10T02:14:37.613Z,10.80
2019-05-10T02:16:39.303Z,10.80
2019-05-10T02:18:40.974Z,10.80
2019-05-10T02:20:42.637Z,10.70
2019-05-10T02:22:44.312Z,10.80
2019-05-10T02:24:45.981Z,10.80
2019-05-10T02:26:47.666Z,10.80
2019-05-10T02:28:49.338Z,10.80
2019-05-10T02:30:51.008Z,10.70
2019-05-10T02:32:52.681Z,10.70
2019-05-10T02:34:54.678Z,10.70
2019-05-10T02:36:56.359Z,10.70
2019-05-10T02:38:58.031Z,10.70
2019-05-10T02:40:59.707Z,10.70
2019-05-10T02:43:01.702Z,10.70
2019-05-10T02:45:04.033Z,10.70
2019-05-10T02:47:05.712Z,10.70
2019-05-10T02:49:07.383Z,10.70
2019-05-10T02:51:09.049Z,10.70
2019-05-10T02:53:10.726Z,10.70
2019-05-10T02:55:12.394Z,10.70
2019-05-10T02:57:14.064Z,10.70
2019-05-10T02:59:15.726Z,10.70
2019-05-10T03:01:17.925Z,10.70
2019-05-10T03:03:19.895Z,10.70
2019-05-10T03:05:21.558Z,10.70
2019-05-10T03:07:24.757Z,10.70
2019-05-10T03:09:27.328Z,10.70
2019-05-10T03:11:32.805Z,10.70
2019-05-10T03:13:34.474Z,10.70
2019-05-10T03:15:36.634Z,10.70
2019-05-10T03:17:39.150Z,10.70
2019-05-10T03:19:41.166Z,10.70
2019-05-10T03:21:42.835Z,10.70
2019-05-10T03:23:44.807Z,10.70
2019-05-10T03:25:46.563Z,10.70
2019-05-10T03:27:48.554Z,10.60
2019-05-10T03:29:50.293Z,10.60
2019-05-10T03:31:52.304Z,10.60
2019-05-10T03:33:57.198Z,10.70
2019-05-10T03:35:57.711Z,10.60
2019-05-10T03:37:59.922Z,10.60
2019-05-10T03:40:01.924Z,10.70
2019-05-10T03:42:03.688Z,10.60
2019-05-10T03:44:05.368Z,10.60
2019-05-10T03:46:07.038Z,10.60
2019-05-10T03:48:08.722Z,10.60
2019-05-10T03:50:10.386Z,10.60
2019-05-10T03:52:13.299Z,10.60
2019-05-10T03:54:14.987Z,10.60
2019-05-10T03:56:16.670Z,10.50
2019-05-10T03:58:18.425Z,10.50
2019-05-10T04:00:20.090Z,10.50
2019-05-10T04:02:21.759Z,10.40
2019-05-10T04:04:23.862Z,10.40
2019-05-10T04:06:25.612Z,10.40
2019-05-10T04:08:27.289Z,10.40
2019-05-10T04:10:29.217Z,10.40
2019-05-10T04:12:30.882Z,10.40
2019-05-10T04:14:32.563Z,10.40
2019-05-10T04:16:34.320Z,10.40
2019-05-10T04:18:35.998Z,10.40
2019-05-10T04:20:37.666Z,10.50
2019-05-10T04:22:39.334Z,10.50
2019-05-10T04:24:41.016Z,10.60
2019-05-10T04:26:42.778Z,10.60
2019-05-10T04:28:44.462Z,10.60
2019-05-10T04:30:46.113Z,10.70
2019-05-10T04:32:48.215Z,10.70
2019-05-10T04:34:49.946Z,10.70
2019-05-10T04:36:51.618Z,10.80
2019-05-10T04:38:53.289Z,10.80
2019-05-10T04:40:54.953Z,10.70
2019-05-10T04:42:56.621Z,10.70
2019-05-10T04:44:58.298Z,10.70
2019-05-10T04:47:00.351Z,10.70
2019-05-10T04:49:02.038Z,10.70
2019-05-10T04:51:03.697Z,10.80
2019-05-10T04:53:05.367Z,10.80
2019-05-10T04:55:07.351Z,10.80
2019-05-10T04:57:09.389Z,10.80
2019-05-10T04:59:11.406Z,10.90
2019-05-10T05:01:13.078Z,11.00
2019-05-10T05:03:14.994Z,11.00
2019-05-10T05:05:16.997Z,10.90
2019-05-10T05:07:18.657Z,11.00
2019-05-10T05:09:20.333Z,10.90
2019-05-10T05:11:22.301Z,10.80
2019-05-10T05:13:23.967Z,10.70
2019-05-10T05:15:25.649Z,10.70
2019-05-10T05:17:27.566Z,10.70
2019-05-10T05:19:29.241Z,10.60
2019-05-10T05:21:30.914Z,10.50
2019-05-10T05:23:32.634Z,10.50
2019-05-10T05:25:35.322Z,10.40
2019-05-10T05:27:38.209Z,10.40
2019-05-10T05:29:39.872Z,10.40
2019-05-10T05:31:41.537Z,10.40
2019-05-10T05:33:43.205Z,10.60
2019-05-10T05:35:45.118Z,10.60
2019-05-10T05:37:47.105Z,10.60
2019-05-10T05:39:48.782Z,10.80
2019-05-10T05:41:52.213Z,11.00
2019-05-10T05:43:54.025Z,11.20
2019-05-10T05:45:55.701Z,11.20
2019-05-10T05:47:57.605Z,11.30
2019-05-10T05:49:59.561Z,11.30
2019-05-10T05:52:01.527Z,11.40
2019-05-10T05:54:04.196Z,11.60
2019-05-10T05:56:12.837Z,12.00
2019-05-10T05:58:25.207Z,12.10
2019-05-10T06:00:13.517Z,12.20
2019-05-10T06:02:15.186Z,12.10
2019-05-10T06:04:16.855Z,12.10
2019-05-10T06:06:23.448Z,12.00
2019-05-10T06:08:24.659Z,12.00
2019-05-10T06:10:25.947Z,11.80
2019-05-10T06:12:27.697Z,11.80
2019-05-10T06:14:29.410Z,11.80
2019-05-10T06:16:31.174Z,11.70
2019-05-10T06:18:32.847Z,11.70
2019-05-10T06:20:38.221Z,11.60
2019-05-10T06:22:43.680Z,11.50
2019-05-10T06:24:46.651Z,11.40
2019-05-10T06:26:45.644Z,11.40
2019-05-10T06:29:04.627Z,11.30
2019-05-10T06:30:51.233Z,11.20
2019-05-10T06:32:59.524Z,11.20
2019-05-10T06:34:56.476Z,11.10
2019-05-10T06:36:58.150Z,11.10
2019-05-10T06:38:59.805Z,11.10
2019-05-10T06:41:01.552Z,11.10
2019-05-10T06:43:07.110Z,11.20
2019-05-10T06:45:14.339Z,11.20
2019-05-10T06:47:30.042Z,11.20
2019-05-10T06:49:31.701Z,11.10
2019-05-10T06:51:33.378Z,11.20
2019-05-10T06:53:35.042Z,11.20
2019-05-10T06:55:36.720Z,11.30
2019-05-10T06:57:38.381Z,11.30
2019-05-10T06:59:40.044Z,11.40
2019-05-10T07:01:45.892Z,11.50
2019-05-10T07:03:45.297Z,11.50
2019-05-10T07:05:47.246Z,11.50
2019-05-10T07:07:48.918Z,11.50
2019-05-10T07:10:17.726Z,11.60
2019-05-10T07:11:55.077Z,11.50
2019-05-10T07:13:56.752Z,11.40
2019-05-10T07:15:58.426Z,11.50
2019-05-10T07:18:00.087Z,11.30
2019-05-10T07:20:01.969Z,11.30
2019-05-10T07:22:03.728Z,11.20
2019-05-10T07:24:05.398Z,11.20
2019-05-10T07:26:09.755Z,11.10
2019-05-10T07:28:15.624Z,11.10
2019-05-10T07:30:19.490Z,11.10
2019-05-10T07:32:22.290Z,11.10
2019-05-10T07:34:24.726Z,11.00
2019-05-10T07:36:29.448Z,11.10
2019-05-10T07:38:31.408Z,11.10
2019-05-10T07:40:33.566Z,11.10
2019-05-10T07:42:39.825Z,11.10
2019-05-10T07:44:41.583Z,11.00
2019-05-10T07:46:46.496Z,11.10
2019-05-10T07:48:50.616Z,11.10
2019-05-10T07:50:51.935Z,11.10
2019-05-10T07:52:53.966Z,11.20
2019-05-10T07:54:55.630Z,11.20
2019-05-10T07:56:57.560Z,11.20
2019-05-10T07:59:00.730Z,11.10
2019-05-10T08:01:03.019Z,11.10
2019-05-10T08:03:13.200Z,11.00
2019-05-10T08:05:13.843Z,11.10
2019-05-10T08:07:12.093Z,11.10
2019-05-10T08:09:13.942Z,11.00
2019-05-10T08:11:15.613Z,11.10
2019-05-10T08:13:23.320Z,11.20
2019-05-10T08:15:24.844Z,11.20
2019-05-10T08:17:24.922Z,11.20
2019-05-10T08:19:27.165Z,11.20
2019-05-10T08:21:28.837Z,11.20
2019-05-10T08:23:30.814Z,11.20
2019-05-10T08:25:36.345Z,11.30
2019-05-10T08:27:36.675Z,11.30
2019-05-10T08:29:38.343Z,11.30
2019-05-10T08:31:44.125Z,11.30
2019-05-10T08:33:52.923Z,11.40
2019-05-10T08:35:52.383Z,11.20
2019-05-10T08:37:52.926Z,11.30
2019-05-10T08:39:56.045Z,11.50
2019-05-10T08:42:04.909Z,11.60
2019-05-10T08:44:04.744Z,11.80
2019-05-10T08:46:05.033Z,11.70
2019-05-10T08:48:07.243Z,11.80
2019-05-10T08:50:22.668Z,11.80
2019-05-10T08:52:12.986Z,11.80
2019-05-10T08:54:14.643Z,11.80
2019-05-10T08:56:20.872Z,11.50
2019-05-10T08:58:21.660Z,11.50
2019-05-10T09:00:41.803Z,11.50
2019-05-10T09:02:29.100Z,11.70
2019-05-10T09:04:41.662Z,11.80
2019-05-10T09:06:34.674Z,11.90
2019-05-10T09:08:36.345Z,11.90
2019-05-10T09:10:38.605Z,11.90
2019-05-10T09:12:44.211Z,12.00
2019-05-10T09:14:43.897Z,12.00
2019-05-10T09:16:56.271Z,12.00
2019-05-10T09:18:51.241Z,12.10
2019-05-10T09:20:54.489Z,12.10
2019-05-10T09:22:56.631Z,12.40
2019-05-10T09:24:58.298Z,12.40
2019-05-10T09:27:01.829Z,12.60
2019-05-10T09:29:03.692Z,12.70
2019-05-10T09:31:17.380Z,12.80
2019-05-10T09:33:10.433Z,12.90
2019-05-10T09:35:12.909Z,12.90
2019-05-10T09:37:17.710Z,12.80
2019-05-10T09:39:24.219Z,12.60
2019-05-10T09:41:22.728Z,12.40
2019-05-10T09:43:24.541Z,12.20
2019-05-10T09:45:26.549Z,12.10
2019-05-10T09:47:28.220Z,11.90
2019-05-10T09:49:29.892Z,11.80
2019-05-10T09:51:33.152Z,11.70
2019-05-10T09:53:38.038Z,11.60
2019-05-10T09:55:39.098Z,11.50
2019-05-10T09:57:40.785Z,11.40
2019-05-10T09:59:42.551Z,11.40
2019-05-10T10:01:44.213Z,11.40
2019-05-10T10:03:47.693Z,11.50
2019-05-10T10:05:49.473Z,11.60
2019-05-10T10:07:51.156Z,11.80
2019-05-10T10:09:52.839Z,12.10
2019-05-10T10:11:59.304Z,12.40
2019-05-10T10:14:01.779Z,12.60
2019-05-10T10:16:04.010Z,13.20
2019-05-10T10:18:05.470Z,13.70
2019-05-10T10:20:08.360Z,14.00
2019-05-10T10:22:11.479Z,14.30
2019-05-10T10:24:17.239Z,14.60
2019-05-10T10:26:20.977Z,14.90
2019-05-10T10:28:22.555Z,15.00
2019-05-10T10:30:27.105Z,15.10
2019-05-10T10:32:31.597Z,15.00
2019-05-10T10:34:32.697Z,14.90
2019-05-10T10:36:40.190Z,14.70
2019-05-10T10:38:45.280Z,14.70
2019-05-10T10:40:44.877Z,14.60
2019-05-10T10:42:47.321Z,14.70
2019-05-10T10:44:49.745Z,14.70
2019-05-10T10:46:51.741Z,14.60
2019-05-10T10:48:53.706Z,14.50
2019-05-10T10:50:57.938Z,14.40
2019-05-10T10:52:59.162Z,14.30
2019-05-10T10:55:05.530Z,14.50
2019-05-10T10:57:04.403Z,14.40
2019-05-10T10:59:07.529Z,14.40
2019-05-10T11:01:23.568Z,14.40
2019-05-10T11:03:13.037Z,14.30
2019-05-10T11:05:14.701Z,14.30
2019-05-10T11:07:16.375Z,14.40
2019-05-10T11:09:20.541Z,14.50
2019-05-10T11:11:22.273Z,14.20
2019-05-10T11:13:41.478Z,14.10
2019-05-10T11:15:32.983Z,13.90
2019-05-10T11:17:31.385Z,13.80
2019-05-10T11:19:33.067Z,13.50
2019-05-10T11:21:35.078Z,13.60
2019-05-10T11:23:39.061Z,13.50
2019-05-10T11:25:49.753Z,13.50
2019-05-10T11:27:47.736Z,13.30
2019-05-10T11:29:47.456Z,13.30
2019-05-10T11:32:10.436Z,13.40
2019-05-10T11:33:58.244Z,13.20
2019-05-10T11:35:57.639Z,13.20
2019-05-10T11:38:01.212Z,13.30
2019-05-10T11:40:03.312Z,13.40
2019-05-10T11:42:07.134Z,13.60
2019-05-10T11:44:11.258Z,13.70
2019-05-10T11:46:12.621Z,13.90
2019-05-10T11:48:14.569Z,14.00
2019-05-10T11:50:28.824Z,14.20
2019-05-10T11:52:21.666Z,14.30
2019-05-10T11:54:23.388Z,14.50
2019-05-10T11:58:31.075Z,14.90
2019-05-10T12:00:34.354Z,15.20
2019-05-10T12:02:41.857Z,15.50
2019-05-10T12:04:43.266Z,15.80
2019-05-10T12:06:50.057Z,15.70
2019-05-10T12:08:46.977Z,15.60
2019-05-10T12:10:52.891Z,15.70
2019-05-10T12:13:06.182Z,15.60
2019-05-10T12:14:56.220Z,15.70
2019-05-10T12:16:57.885Z,15.90
2019-05-10T12:19:10.573Z,15.70
2019-05-10T12:21:09.338Z,15.70
2019-05-10T12:23:13.135Z,15.60
2019-05-10T12:25:35.071Z,15.20
2019-05-10T12:26:36.094Z,14.80
2019-05-10T12:27:25.495Z,15.20
2019-05-10T12:29:18.142Z,15.10
2019-05-10T12:31:21.104Z,15.00
2019-05-10T12:33:25.796Z,14.80
2019-05-10T12:35:35.559Z,14.60
2019-05-10T12:37:31.033Z,14.50
2019-05-10T12:39:32.957Z,14.40
2019-05-10T12:41:39.633Z,14.40
2019-05-10T12:43:38.184Z,14.30
2019-05-10T12:45:41.841Z,14.10
2019-05-10T12:47:43.658Z,14.10
2019-05-10T12:49:45.332Z,14.10
2019-05-10T12:51:47.268Z,14.10
2019-05-10T12:53:49.805Z,14.00
2019-05-10T12:55:52.520Z,14.20
2019-05-10T12:57:54.176Z,14.30
2019-05-10T12:59:56.124Z,14.30
2019-05-10T13:01:58.385Z,14.50
2019-05-10T13:04:02.119Z,14.60
2019-05-10T13:06:04.549Z,14.80
2019-05-10T13:08:06.218Z,14.70
2019-05-10T13:10:09.685Z,15.00
2019-05-10T13:12:11.929Z,15.40
2019-05-10T13:14:13.597Z,15.70
2019-05-10T13:16:15.269Z,16.10
2019-05-10T13:18:16.944Z,16.40
2019-05-10T13:20:18.618Z,16.30
2019-05-10T13:22:20.291Z,16.80
2019-05-10T13:24:21.949Z,17.20
2019-05-10T13:26:23.634Z,17.40
2019-05-10T13:28:25.328Z,18.00
2019-05-10T13:30:28.345Z,18.10
2019-05-10T13:32:30.989Z,17.90
2019-05-10T13:34:32.646Z,17.90
2019-05-10T13:36:37.275Z,18.00
2019-05-10T13:38:43.930Z,17.70
2019-05-10T13:40:45.503Z,17.70
2019-05-10T13:42:45.986Z,17.20
2019-05-10T13:44:47.901Z,16.90
2019-05-10T13:46:49.571Z,16.60
2019-05-10T13:48:51.242Z,16.20
2019-05-10T13:50:52.921Z,16.00
2019-05-10T13:52:54.596Z,15.80
2019-05-10T13:54:57.382Z,16.00
2019-05-10T13:56:59.071Z,16.50
2019-05-10T13:59:13.780Z,16.70
2019-05-10T14:01:06.610Z,17.10
2019-05-10T14:03:11.449Z,17.10
2019-05-10T14:05:17.095Z,16.80
2019-05-10T14:07:15.335Z,16.80
2019-05-10T14:09:20.630Z,16.50
2019-05-10T14:11:20.927Z,16.30
2019-05-10T14:13:22.919Z,16.00
2019-05-10T14:15:24.581Z,16.00
2019-05-10T14:17:26.543Z,15.90
2019-05-10T14:19:28.301Z,16.00
2019-05-10T14:21:29.982Z,16.10
2019-05-10T14:23:35.318Z,16.30
2019-05-10T14:25:38.732Z,16.50
2019-05-10T14:27:38.802Z,16.40
2019-05-10T14:29:40.528Z,16.40
2019-05-10T14:31:42.502Z,16.50
2019-05-10T14:33:49.557Z,16.70
2019-05-10T14:35:47.824Z,16.60
2019-05-10T14:37:49.482Z,16.60
2019-05-10T14:39:51.153Z,16.60
2019-05-10T14:41:52.835Z,16.50
2019-05-10T14:43:54.493Z,16.40
2019-05-10T14:45:56.174Z,16.10
2019-05-10T14:47:58.136Z,16.20
2019-05-10T14:49:59.806Z,16.20
2019-05-10T14:52:01.494Z,16.10
2019-05-10T14:54:06.488Z,16.00
2019-05-10T14:56:08.015Z,15.90
2019-05-10T14:58:10.297Z,15.90
2019-05-10T15:00:12.005Z,15.90
2019-05-10T15:02:17.068Z,15.70
2019-05-10T15:04:43.691Z,16.00
2019-05-10T15:06:21.156Z,15.90
2019-05-10T15:08:22.826Z,15.80
2019-05-10T15:10:24.485Z,15.70
2019-05-10T15:12:26.161Z,15.70
2019-05-10T15:14:47.495Z,15.60
2019-05-10T15:16:49.168Z,15.60
2019-05-10T15:18:51.090Z,15.70
2019-05-10T15:20:52.762Z,15.70
2019-05-10T15:22:54.530Z,15.80
2019-05-10T15:24:56.438Z,15.90
2019-05-10T15:26:58.105Z,15.90
2019-05-10T15:29:00.031Z,16.10
2019-05-10T15:31:01.769Z,16.00
2019-05-10T15:33:03.569Z,16.00
2019-05-10T15:35:07.938Z,16.10
2019-05-10T15:37:09.607Z,16.40
2019-05-10T15:39:12.618Z,16.60
2019-05-10T15:41:16.996Z,16.50
2019-05-10T15:43:19.053Z,16.20
2019-05-10T15:45:20.941Z,16.00
2019-05-10T15:47:22.648Z,15.90
2019-05-10T15:49:24.696Z,15.90
2019-05-10T15:53:30.154Z,15.70
2019-05-10T15:55:32.015Z,15.60
2019-05-10T15:57:33.794Z,15.50
2019-05-10T15:59:23.771Z,15.90
2019-05-10T15:59:35.681Z,15.50
2019-05-10T16:01:37.388Z,15.80
2019-05-10T16:03:39.322Z,15.90
2019-05-10T16:05:43.923Z,15.80
2019-05-10T16:07:46.421Z,15.70
2019-05-10T16:09:50.020Z,15.60
2019-05-10T16:11:56.022Z,15.60
2019-05-10T16:14:00.155Z,15.30
2019-05-10T16:15:59.668Z,15.30
2019-05-10T16:18:01.785Z,15.30
2019-05-10T16:20:03.871Z,15.20
2019-05-10T16:22:05.537Z,15.10
2019-05-10T16:24:07.216Z,14.90
2019-05-10T16:26:09.386Z,14.90
2019-05-10T16:28:15.507Z,14.90
2019-05-10T16:30:17.716Z,14.80
2019-05-10T16:32:18.187Z,14.80
2019-05-10T16:34:19.866Z,14.70
2019-05-10T16:36:23.031Z,14.60
2019-05-10T16:38:25.110Z,14.80
2019-05-10T16:40:26.789Z,14.80
2019-05-10T16:42:34.665Z,14.80
2019-05-10T16:44:32.212Z,14.80
2019-05-10T16:46:33.878Z,14.70
2019-05-10T16:48:35.790Z,14.70
2019-05-10T16:50:37.747Z,14.80
2019-05-10T16:52:39.433Z,14.80
2019-05-10T16:54:41.780Z,14.80
2019-05-10T16:56:43.445Z,14.80
2019-05-10T16:58:47.669Z,14.80
2019-05-10T17:00:49.333Z,14.70
2019-05-10T17:02:51.286Z,14.60
2019-05-10T17:04:53.257Z,14.60
2019-05-10T17:06:58.158Z,14.50
2019-05-10T17:08:58.494Z,14.50
2019-05-10T17:11:09.478Z,14.40
2019-05-10T17:13:04.946Z,14.40
2019-05-10T17:15:07.312Z,14.40
2019-05-10T17:17:08.976Z,14.30
2019-05-10T17:19:10.651Z,14.30
2019-05-10T17:21:12.322Z,14.20
2019-05-10T17:23:14.013Z,14.10
2019-05-10T17:25:15.684Z,14.10
2019-05-10T17:27:17.344Z,14.00
2019-05-10T17:29:19.321Z,14.00
2019-05-10T17:31:20.982Z,13.90
2019-05-10T17:33:22.646Z,13.90
2019-05-10T17:35:24.361Z,13.80
2019-05-10T17:37:29.852Z,13.80
2019-05-10T17:39:32.332Z,13.70
2019-05-10T17:41:33.577Z,13.70
2019-05-10T17:43:35.258Z,13.60
2019-05-10T17:45:40.409Z,13.50
2019-05-10T17:47:40.722Z,13.50
2019-05-10T17:49:42.401Z,13.50
2019-05-10T17:51:44.775Z,13.40
2019-05-10T17:53:46.910Z,13.40
2019-05-10T17:55:55.625Z,13.30
2019-05-10T17:57:55.167Z,13.30
2019-05-10T17:59:58.089Z,13.20
2019-05-10T18:02:00.421Z,13.20
2019-05-10T18:04:02.370Z,13.10
2019-05-10T18:06:04.897Z,13.00
2019-05-10T18:08:06.620Z,13.00
2019-05-10T18:10:08.294Z,13.00
2019-05-10T18:12:10.308Z,13.00
2019-05-10T18:14:12.468Z,13.00
2019-05-10T18:16:16.118Z,13.00
2019-05-10T18:18:17.772Z,12.90
2019-05-10T18:20:19.458Z,12.90
2019-05-10T18:22:21.122Z,12.80
2019-05-10T18:24:22.789Z,12.80
2019-05-10T18:26:24.458Z,12.80
2019-05-10T18:28:26.278Z,12.70
2019-05-10T18:30:27.955Z,12.60
2019-05-10T18:32:35.681Z,12.60
2019-05-10T18:34:35.351Z,12.60
2019-05-10T18:36:51.271Z,12.50
2019-05-10T18:38:40.317Z,12.50
2019-05-10T18:40:42.039Z,12.40
2019-05-10T18:42:43.764Z,12.40
2019-05-10T18:44:51.376Z,12.30
2019-05-10T18:46:50.407Z,12.20
2019-05-10T18:48:52.949Z,12.10
2019-05-10T18:50:55.672Z,12.10
2019-05-10T18:52:58.204Z,11.90
2019-05-10T18:55:00.606Z,11.90
2019-05-10T18:57:04.396Z,11.90
2019-05-10T18:59:07.458Z,11.80
2019-05-10T19:01:11.059Z,11.80
2019-05-10T19:03:13.462Z,11.70
2019-05-10T19:05:15.619Z,11.60
2019-05-10T19:07:18.301Z,11.50
2019-05-10T19:09:20.425Z,11.30
2019-05-10T19:11:23.044Z,11.30
2019-05-10T19:13:26.497Z,11.20
2019-05-10T19:15:29.587Z,11.00
2019-05-10T19:17:31.622Z,10.90
2019-05-10T19:19:37.457Z,11.00
2019-05-10T19:21:38.320Z,11.00
2019-05-10T19:23:40.600Z,11.00
2019-05-10T19:25:45.684Z,11.00
2019-05-10T19:27:50.601Z,11.00
2019-05-10T19:29:49.837Z,11.00
2019-05-10T19:31:51.503Z,10.90
2019-05-10T19:33:53.234Z,10.90
2019-05-10T19:35:54.935Z,10.90
2019-05-10T19:37:56.939Z,10.90
2019-05-10T19:39:59.027Z,10.90
2019-05-10T19:42:03.838Z,10.90
2019-05-10T19:44:04.640Z,10.70
2019-05-10T19:46:06.616Z,10.70
2019-05-10T19:48:08.456Z,10.60
2019-05-10T19:50:10.129Z,10.70
2019-05-10T19:52:12.232Z,10.70
2019-05-10T19:54:19.585Z,10.70
2019-05-10T19:56:17.755Z,10.70
2019-05-10T19:58:19.417Z,10.70
2019-05-10T20:00:21.097Z,10.70
2019-05-10T20:02:22.757Z,10.70
2019-05-10T20:04:24.470Z,10.60
2019-05-10T20:06:26.150Z,10.50
2019-05-10T20:08:27.809Z,10.50
2019-05-10T20:10:29.478Z,10.40
2019-05-10T20:12:31.136Z,10.40
2019-05-10T20:14:32.794Z,10.40
2019-05-10T20:16:51.027Z,10.30
2019-05-10T20:18:38.317Z,10.30
2019-05-10T20:20:40.004Z,10.10
2019-05-10T20:22:41.665Z,10.00
2019-05-10T20:24:43.333Z,9.90
2019-05-10T20:26:45.004Z,9.90
2019-05-10T20:28:46.946Z,10.00
2019-05-10T20:30:48.606Z,10.00
2019-05-10T20:32:50.281Z,10.00
2019-05-10T20:34:51.932Z,10.10
2019-05-10T20:36:53.605Z,10.10
2019-05-10T20:38:55.613Z,10.10
2019-05-10T20:40:57.289Z,10.10
2019-05-10T20:42:58.961Z,10.10
2019-05-10T20:45:07.283Z,10.10
2019-05-10T20:47:04.436Z,10.10
2019-05-10T20:49:06.645Z,10.10
2019-05-10T20:51:08.905Z,10.10
2019-05-10T20:53:11.186Z,10.20
2019-05-10T20:55:12.888Z,10.20
2019-05-10T20:57:14.886Z,10.20
2019-05-10T20:59:16.564Z,10.20
2019-05-10T21:01:18.561Z,10.30
2019-05-10T21:03:20.241Z,10.20
2019-05-10T21:05:22.174Z,10.20
2019-05-10T21:07:23.845Z,10.20
2019-05-10T21:09:25.815Z,10.20
2019-05-10T21:11:27.491Z,10.20
2019-05-10T21:13:29.158Z,10.20
2019-05-10T21:15:30.829Z,10.20
2019-05-10T21:17:32.511Z,10.10
2019-05-10T21:19:34.198Z,10.20
2019-05-10T21:21:35.871Z,10.20
2019-05-10T21:23:37.561Z,10.10
2019-05-10T21:25:39.313Z,10.00
2019-05-10T21:27:41.299Z,9.90
2019-05-10T21:29:42.989Z,9.60
2019-05-10T21:31:44.650Z,9.80
2019-05-10T21:33:46.565Z,9.90
2019-05-10T21:35:48.237Z,9.90
2019-05-10T21:37:50.185Z,10.00
2019-05-10T21:39:52.130Z,10.00
2019-05-10T21:41:53.827Z,10.10
2019-05-10T21:43:55.821Z,10.10
2019-05-10T21:45:57.482Z,10.20
2019-05-10T21:47:59.161Z,10.20
2019-05-10T21:50:01.459Z,10.20
2019-05-10T21:52:03.133Z,10.20
2019-05-10T21:54:05.130Z,10.20
2019-05-10T21:56:06.797Z,10.20
2019-05-10T21:58:08.466Z,10.20
2019-05-10T22:00:10.942Z,10.20
2019-05-10T22:02:12.932Z,10.20
2019-05-10T22:04:14.925Z,10.30
2019-05-10T22:06:16.607Z,10.30
2019-05-10T22:08:18.529Z,10.30
2019-05-10T22:10:20.193Z,10.30
2019-05-10T22:12:22.149Z,10.30
2019-05-10T22:14:23.825Z,10.30
2019-05-10T22:16:25.571Z,10.30
2019-05-10T22:18:27.617Z,10.30
2019-05-10T22:20:29.310Z,10.40
2019-05-10T22:22:31.080Z,10.40
2019-05-10T22:24:32.736Z,10.40
2019-05-10T22:26:34.405Z,10.40
2019-05-10T22:28:36.070Z,10.40
2019-05-10T22:30:37.833Z,10.40
2019-05-10T22:32:39.508Z,10.30
2019-05-10T22:34:41.161Z,10.30
2019-05-10T22:36:42.854Z,10.20
2019-05-10T22:38:44.517Z,10.00
2019-05-10T22:40:46.211Z,10.10
2019-05-10T22:42:47.885Z,10.20
2019-05-10T22:44:49.550Z,10.20
2019-05-10T22:46:51.224Z,10.20
2019-05-10T22:48:52.893Z,10.20
2019-05-10T22:50:54.557Z,10.20
2019-05-10T22:52:56.238Z,10.20
2019-05-10T22:55:00.495Z,10.20
2019-05-10T22:57:01.802Z,10.20
2019-05-10T22:59:03.483Z,10.20
2019-05-10T23:01:05.154Z,10.20
2019-05-10T23:03:06.834Z,10.20
2019-05-10T23:05:08.506Z,10.30
2019-05-10T23:07:10.214Z,10.30
2019-05-10T23:09:24.284Z,10.20
2019-05-10T23:11:15.482Z,10.30
2019-05-10T23:13:17.171Z,10.30
2019-05-10T23:15:18.824Z,10.40
2019-05-10T23:17:20.497Z,10.40
2019-05-10T23:19:22.174Z,10.30
2019-05-10T23:21:23.842Z,10.30
2019-05-10T23:23:25.536Z,10.40
2019-05-10T23:25:27.266Z,10.30
2019-05-10T23:27:29.198Z,10.30
2019-05-10T23:29:31.084Z,10.30
2019-05-10T23:31:35.408Z,10.20
2019-05-10T23:33:36.359Z,10.20
2019-05-10T23:35:38.097Z,10.10
2019-05-10T23:37:39.779Z,10.10
2019-05-10T23:39:41.616Z,10.10
2019-05-10T23:41:43.615Z,10.00
2019-05-10T23:43:45.290Z,10.00
2019-05-10T23:45:46.940Z,10.00
2019-05-10T23:47:48.613Z,10.00
2019-05-10T23:49:50.606Z,10.00
2019-05-10T23:51:52.610Z,10.00
2019-05-10T23:53:54.304Z,10.00
2019-05-10T23:55:55.965Z,10.10
2019-05-10T23:57:57.649Z,10.10
2019-05-10T23:59:59.318Z,10.10
